sensor_id;sensor_type;location;lat;lon;timestamp;pressure;altitude;pressure_sealevel;temperature;humidity
11936;BME280;6027;48.576;9.180;2023-04-25T00:02:08;96276.13;;;8.28;100.00
11936;BME280;6027;48.576;9.180;2023-04-25T00:04:34;96260.41;;;8.20;100.00
11936;BME280;6027;48.576;9.180;2023-04-25T00:07:00;96256.59;;;8.22;100.00
11936;BME280;6027;48.576;9.180;2023-04-25T00:09:28;96252.59;;;8.26;100.00
11936;BME280;6027;48.576;9.180;2023-04-25T00:11:55;96258.25;;;8.23;100.00
11936;BME280;6027;48.576;9.180;2023-04-25T00:14:20;96262.34;;;8.26;100.00
11936;BME280;6027;48.576;9.180;2023-04-25T00:16:45;96275.78;;;8.16;100.00
11936;BME280;6027;48.576;9.180;2023-04-25T00:19:11;96278.41;;;8.02;100.00
11936;BME280;6027;48.576;9.180;2023-04-25T00:21:36;96275.84;;;8.08;100.00
11936;BME280;6027;48.576;9.180;2023-04-25T00:24:06;96277.59;;;8.16;100.00
11936;BME280;6027;48.576;9.180;2023-04-25T00:26:33;96276.13;;;8.13;100.00
11936;BME280;6027;48.576;9.180;2023-04-25T00:28:59;96276.13;;;7.84;100.00
11936;BME280;6027;48.576;9.180;2023-04-25T00:31:24;96283.44;;;7.74;100.00
11936;BME280;6027;48.576;9.180;2023-04-25T00:33:49;96268.22;;;7.84;100.00
11936;BME280;6027;48.576;9.180;2023-04-25T00:36:15;96267.22;;;7.85;100.00
11936;BME280;6027;48.576;9.180;2023-04-25T00:38:40;96268.47;;;7.89;100.00
11936;BME280;6027;48.576;9.180;2023-04-25T00:41:07;96260.19;;;7.77;100.00
11936;BME280;6027;48.576;9.180;2023-04-25T00:43:32;96263.34;;;7.58;100.00
11936;BME280;6027;48.576;9.180;2023-04-25T00:46:00;96259.72;;;7.59;100.00
11936;BME280;6027;48.576;9.180;2023-04-25T00:48:25;96263.88;;;7.53;100.00
11936;BME280;6027;48.576;9.180;2023-04-25T00:50:56;96263.53;;;7.71;100.00
11936;BME280;6027;48.576;9.180;2023-04-25T00:53:23;96253.47;;;7.75;100.00
11936;BME280;6027;48.576;9.180;2023-04-25T00:55:50;96248.50;;;7.80;100.00
11936;BME280;6027;48.576;9.180;2023-04-25T00:58:20;96249.50;;;7.79;100.00
11936;BME280;6027;48.576;9.180;2023-04-25T01:00:48;96252.66;;;7.74;100.00
11936;BME280;6027;48.576;9.180;2023-04-25T01:03:15;96244.56;;;7.76;100.00
11936;BME280;6027;48.576;9.180;2023-04-25T01:05:41;96246.38;;;7.75;100.00
11936;BME280;6027;48.576;9.180;2023-04-25T01:08:07;96242.41;;;7.79;100.00
11936;BME280;6027;48.576;9.180;2023-04-25T01:10:32;96246.03;;;7.78;100.00
11936;BME280;6027;48.576;9.180;2023-04-25T01:12:58;96241.69;;;7.85;100.00
11936;BME280;6027;48.576;9.180;2023-04-25T01:15:23;96240.75;;;7.78;100.00
11936;BME280;6027;48.576;9.180;2023-04-25T01:17:49;96227.13;;;7.89;100.00
11936;BME280;6027;48.576;9.180;2023-04-25T01:20:15;96235.69;;;7.91;100.00
11936;BME280;6027;48.576;9.180;2023-04-25T01:22:42;96226.78;;;7.92;100.00
11936;BME280;6027;48.576;9.180;2023-04-25T01:25:08;96226.50;;;8.02;100.00
11936;BME280;6027;48.576;9.180;2023-04-25T01:27:35;96235.53;;;8.08;100.00
11936;BME280;6027;48.576;9.180;2023-04-25T01:32:33;96229.78;;;8.04;100.00
11936;BME280;6027;48.576;9.180;2023-04-25T01:35:10;96219.16;;;7.97;100.00
11936;BME280;6027;48.576;9.180;2023-04-25T01:37:37;96220.78;;;7.84;100.00
11936;BME280;6027;48.576;9.180;2023-04-25T01:40:03;96230.97;;;7.87;100.00
11936;BME280;6027;48.576;9.180;2023-04-25T01:42:31;96224.59;;;7.81;100.00
11936;BME280;6027;48.576;9.180;2023-04-25T01:44:57;96231.41;;;7.76;100.00
11936;BME280;6027;48.576;9.180;2023-04-25T01:47:22;96221.66;;;7.61;100.00
11936;BME280;6027;48.576;9.180;2023-04-25T01:49:48;96221.81;;;7.45;100.00
11936;BME280;6027;48.576;9.180;2023-04-25T01:52:13;96229.75;;;7.22;100.00
11936;BME280;6027;48.576;9.180;2023-04-25T01:54:40;96224.69;;;7.36;100.00
11936;BME280;6027;48.576;9.180;2023-04-25T01:57:09;96226.63;;;7.42;100.00
11936;BME280;6027;48.576;9.180;2023-04-25T01:59:35;96223.19;;;7.41;100.00
11936;BME280;6027;48.576;9.180;2023-04-25T02:02:01;96232.88;;;7.41;100.00
11936;BME280;6027;48.576;9.180;2023-04-25T02:04:29;96240.50;;;7.36;100.00
11936;BME280;6027;48.576;9.180;2023-04-25T02:06:54;96236.81;;;7.45;100.00
11936;BME280;6027;48.576;9.180;2023-04-25T02:09:20;96238.16;;;7.41;100.00
11936;BME280;6027;48.576;9.180;2023-04-25T02:11:45;96235.22;;;7.36;100.00
11936;BME280;6027;48.576;9.180;2023-04-25T02:14:11;96229.59;;;7.39;100.00
11936;BME280;6027;48.576;9.180;2023-04-25T02:16:36;96226.13;;;7.23;100.00
11936;BME280;6027;48.576;9.180;2023-04-25T02:19:02;96211.84;;;7.18;100.00
11936;BME280;6027;48.576;9.180;2023-04-25T02:21:28;96216.66;;;7.14;100.00
11936;BME280;6027;48.576;9.180;2023-04-25T02:23:53;96214.59;;;7.24;100.00
11936;BME280;6027;48.576;9.180;2023-04-25T02:26:19;96206.41;;;7.19;100.00
11936;BME280;6027;48.576;9.180;2023-04-25T02:28:44;96203.88;;;7.11;100.00
11936;BME280;6027;48.576;9.180;2023-04-25T02:31:10;96204.69;;;7.12;100.00
11936;BME280;6027;48.576;9.180;2023-04-25T02:33:35;96202.59;;;7.22;100.00
11936;BME280;6027;48.576;9.180;2023-04-25T02:36:01;96203.97;;;7.33;100.00
11936;BME280;6027;48.576;9.180;2023-04-25T02:38:26;96205.38;;;7.43;100.00
11936;BME280;6027;48.576;9.180;2023-04-25T02:40:51;96204.03;;;7.47;100.00
11936;BME280;6027;48.576;9.180;2023-04-25T02:43:17;96210.53;;;7.37;100.00
11936;BME280;6027;48.576;9.180;2023-04-25T02:45:42;96208.72;;;7.37;100.00
11936;BME280;6027;48.576;9.180;2023-04-25T02:48:08;96208.63;;;7.31;100.00
11936;BME280;6027;48.576;9.180;2023-04-25T02:50:33;96212.09;;;7.31;100.00
11936;BME280;6027;48.576;9.180;2023-04-25T02:52:58;96207.25;;;7.35;100.00
11936;BME280;6027;48.576;9.180;2023-04-25T02:55:24;96201.31;;;7.18;100.00
11936;BME280;6027;48.576;9.180;2023-04-25T02:57:49;96209.22;;;7.18;100.00
11936;BME280;6027;48.576;9.180;2023-04-25T03:00:15;96200.75;;;7.08;100.00
11936;BME280;6027;48.576;9.180;2023-04-25T03:02:41;96204.34;;;6.92;100.00
11936;BME280;6027;48.576;9.180;2023-04-25T03:05:26;96197.97;;;6.86;100.00
11936;BME280;6027;48.576;9.180;2023-04-25T03:08:12;96186.38;;;6.73;100.00
11936;BME280;6027;48.576;9.180;2023-04-25T03:10:57;96196.44;;;6.69;100.00
11936;BME280;6027;48.576;9.180;2023-04-25T03:13:43;96193.44;;;6.49;100.00
11936;BME280;6027;48.576;9.180;2023-04-25T03:16:28;96188.75;;;6.59;100.00
11936;BME280;6027;48.576;9.180;2023-04-25T03:19:14;96190.00;;;6.49;100.00
11936;BME280;6027;48.576;9.180;2023-04-25T03:22:02;96191.50;;;6.43;100.00
11936;BME280;6027;48.576;9.180;2023-04-25T03:24:47;96187.69;;;6.46;100.00
11936;BME280;6027;48.576;9.180;2023-04-25T03:27:33;96186.88;;;6.45;100.00
11936;BME280;6027;48.576;9.180;2023-04-25T03:30:18;96176.88;;;6.41;100.00
11936;BME280;6027;48.576;9.180;2023-04-25T03:33:04;96187.34;;;6.49;100.00
11936;BME280;6027;48.576;9.180;2023-04-25T03:35:49;96187.94;;;6.59;100.00
11936;BME280;6027;48.576;9.180;2023-04-25T03:38:35;96175.84;;;6.50;100.00
11936;BME280;6027;48.576;9.180;2023-04-25T03:41:20;96180.75;;;6.53;100.00
11936;BME280;6027;48.576;9.180;2023-04-25T03:44:06;96161.81;;;6.35;100.00
11936;BME280;6027;48.576;9.180;2023-04-25T03:46:51;96173.25;;;6.42;100.00
11936;BME280;6027;48.576;9.180;2023-04-25T03:49:37;96183.91;;;6.48;100.00
11936;BME280;6027;48.576;9.180;2023-04-25T03:52:22;96179.97;;;6.44;100.00
11936;BME280;6027;48.576;9.180;2023-04-25T03:55:08;96177.00;;;6.47;100.00
11936;BME280;6027;48.576;9.180;2023-04-25T03:57:53;96182.47;;;6.38;100.00
11936;BME280;6027;48.576;9.180;2023-04-25T04:00:39;96175.97;;;6.26;100.00
11936;BME280;6027;48.576;9.180;2023-04-25T04:03:24;96174.00;;;6.28;100.00
11936;BME280;6027;48.576;9.180;2023-04-25T04:06:10;96175.97;;;6.26;100.00
11936;BME280;6027;48.576;9.180;2023-04-25T04:08:55;96181.22;;;6.34;100.00
11936;BME280;6027;48.576;9.180;2023-04-25T04:11:21;96178.47;;;6.19;100.00
11936;BME280;6027;48.576;9.180;2023-04-25T04:13:47;96176.31;;;6.22;100.00
11936;BME280;6027;48.576;9.180;2023-04-25T04:16:12;96178.00;;;6.15;100.00
11936;BME280;6027;48.576;9.180;2023-04-25T04:18:38;96156.59;;;5.96;100.00
11936;BME280;6027;48.576;9.180;2023-04-25T04:21:03;96192.47;;;6.11;100.00
11936;BME280;6027;48.576;9.180;2023-04-25T04:23:29;96181.16;;;6.03;100.00
11936;BME280;6027;48.576;9.180;2023-04-25T04:25:55;96189.38;;;6.08;100.00
11936;BME280;6027;48.576;9.180;2023-04-25T04:28:21;96186.09;;;6.06;100.00
11936;BME280;6027;48.576;9.180;2023-04-25T04:30:47;96187.25;;;6.03;100.00
11936;BME280;6027;48.576;9.180;2023-04-25T04:33:13;96192.81;;;6.08;100.00
11936;BME280;6027;48.576;9.180;2023-04-25T04:35:40;96189.88;;;6.03;100.00
11936;BME280;6027;48.576;9.180;2023-04-25T04:38:07;96186.69;;;6.16;100.00
11936;BME280;6027;48.576;9.180;2023-04-25T04:40:35;96191.41;;;6.29;100.00
11936;BME280;6027;48.576;9.180;2023-04-25T04:43:00;96183.19;;;6.32;100.00
11936;BME280;6027;48.576;9.180;2023-04-25T04:45:26;96192.41;;;6.28;100.00
11936;BME280;6027;48.576;9.180;2023-04-25T04:47:52;96194.06;;;6.20;100.00
11936;BME280;6027;48.576;9.180;2023-04-25T04:50:20;96195.06;;;6.19;100.00
11936;BME280;6027;48.576;9.180;2023-04-25T04:52:46;96199.97;;;6.22;100.00
11936;BME280;6027;48.576;9.180;2023-04-25T04:55:11;96197.31;;;6.31;100.00
11936;BME280;6027;48.576;9.180;2023-04-25T04:57:37;96207.66;;;6.32;100.00
11936;BME280;6027;48.576;9.180;2023-04-25T05:00:05;96206.38;;;6.28;100.00
11936;BME280;6027;48.576;9.180;2023-04-25T05:02:36;96207.69;;;6.24;100.00
11936;BME280;6027;48.576;9.180;2023-04-25T05:05:01;96211.78;;;6.27;100.00
11936;BME280;6027;48.576;9.180;2023-04-25T05:07:27;96211.06;;;6.41;100.00
11936;BME280;6027;48.576;9.180;2023-04-25T05:10:01;96208.69;;;6.54;100.00
11936;BME280;6027;48.576;9.180;2023-04-25T05:12:27;96217.31;;;6.40;100.00
11936;BME280;6027;48.576;9.180;2023-04-25T05:14:57;96215.66;;;6.39;100.00
11936;BME280;6027;48.576;9.180;2023-04-25T05:17:23;96216.00;;;6.36;100.00
11936;BME280;6027;48.576;9.180;2023-04-25T05:19:48;96214.72;;;6.32;100.00
11936;BME280;6027;48.576;9.180;2023-04-25T05:22:14;96220.00;;;6.32;100.00
11936;BME280;6027;48.576;9.180;2023-04-25T05:24:39;96213.75;;;6.33;100.00
11936;BME280;6027;48.576;9.180;2023-04-25T05:27:05;96216.66;;;6.38;100.00
11936;BME280;6027;48.576;9.180;2023-04-25T05:29:31;96209.59;;;6.38;100.00
11936;BME280;6027;48.576;9.180;2023-04-25T05:31:56;96208.56;;;6.47;100.00
11936;BME280;6027;48.576;9.180;2023-04-25T05:34:22;96214.94;;;6.53;100.00
11936;BME280;6027;48.576;9.180;2023-04-25T05:36:47;96201.16;;;6.51;100.00
11936;BME280;6027;48.576;9.180;2023-04-25T05:39:16;96215.22;;;6.58;100.00
11936;BME280;6027;48.576;9.180;2023-04-25T05:41:42;96202.91;;;6.58;100.00
11936;BME280;6027;48.576;9.180;2023-04-25T05:44:08;96202.78;;;6.75;100.00
11936;BME280;6027;48.576;9.180;2023-04-25T05:46:33;96210.00;;;6.81;100.00
11936;BME280;6027;48.576;9.180;2023-04-25T05:48:58;96203.88;;;6.88;100.00
11936;BME280;6027;48.576;9.180;2023-04-25T05:51:24;96200.75;;;6.85;100.00
11936;BME280;6027;48.576;9.180;2023-04-25T05:53:49;96202.28;;;6.79;100.00
11936;BME280;6027;48.576;9.180;2023-04-25T05:56:15;96199.81;;;6.78;100.00
11936;BME280;6027;48.576;9.180;2023-04-25T05:58:40;96186.84;;;6.76;100.00
11936;BME280;6027;48.576;9.180;2023-04-25T06:01:06;96201.88;;;6.90;100.00
11936;BME280;6027;48.576;9.180;2023-04-25T06:03:31;96206.97;;;6.92;100.00
11936;BME280;6027;48.576;9.180;2023-04-25T06:05:56;96193.25;;;6.97;100.00
11936;BME280;6027;48.576;9.180;2023-04-25T06:08:22;96204.69;;;7.12;100.00
11936;BME280;6027;48.576;9.180;2023-04-25T06:10:47;96196.16;;;7.24;100.00
11936;BME280;6027;48.576;9.180;2023-04-25T06:13:13;96207.81;;;7.30;100.00
11936;BME280;6027;48.576;9.180;2023-04-25T06:15:38;96209.31;;;7.47;100.00
11936;BME280;6027;48.576;9.180;2023-04-25T06:18:04;96211.31;;;7.60;100.00
11936;BME280;6027;48.576;9.180;2023-04-25T06:20:29;96209.13;;;7.49;100.00
11936;BME280;6027;48.576;9.180;2023-04-25T06:22:54;96211.75;;;7.49;100.00
11936;BME280;6027;48.576;9.180;2023-04-25T06:25:20;96214.22;;;7.50;100.00
11936;BME280;6027;48.576;9.180;2023-04-25T06:27:46;96211.47;;;7.44;100.00
11936;BME280;6027;48.576;9.180;2023-04-25T06:30:11;96203.03;;;7.48;100.00
11936;BME280;6027;48.576;9.180;2023-04-25T06:32:38;96209.56;;;7.52;100.00
11936;BME280;6027;48.576;9.180;2023-04-25T06:35:04;96202.69;;;7.66;100.00
11936;BME280;6027;48.576;9.180;2023-04-25T06:37:29;96207.31;;;7.64;100.00
11936;BME280;6027;48.576;9.180;2023-04-25T06:39:55;96206.84;;;7.60;100.00
11936;BME280;6027;48.576;9.180;2023-04-25T06:42:21;96220.22;;;7.59;100.00
11936;BME280;6027;48.576;9.180;2023-04-25T06:44:46;96213.94;;;7.75;100.00
11936;BME280;6027;48.576;9.180;2023-04-25T06:47:11;96208.03;;;7.73;100.00
11936;BME280;6027;48.576;9.180;2023-04-25T06:49:37;96211.50;;;7.73;100.00
11936;BME280;6027;48.576;9.180;2023-04-25T06:52:02;96219.09;;;7.53;100.00
11936;BME280;6027;48.576;9.180;2023-04-25T06:54:28;96203.22;;;7.61;100.00
11936;BME280;6027;48.576;9.180;2023-04-25T06:56:55;96217.50;;;7.67;100.00
11936;BME280;6027;48.576;9.180;2023-04-25T06:59:20;96210.59;;;7.66;100.00
11936;BME280;6027;48.576;9.180;2023-04-25T07:01:46;96219.22;;;7.60;100.00
11936;BME280;6027;48.576;9.180;2023-04-25T07:04:11;96212.94;;;7.61;100.00
11936;BME280;6027;48.576;9.180;2023-04-25T07:06:37;96224.53;;;7.52;100.00
11936;BME280;6027;48.576;9.180;2023-04-25T07:09:10;96218.09;;;7.40;100.00
11936;BME280;6027;48.576;9.180;2023-04-25T07:11:36;96217.97;;;7.33;100.00
11936;BME280;6027;48.576;9.180;2023-04-25T07:14:02;96213.56;;;7.48;100.00
11936;BME280;6027;48.576;9.180;2023-04-25T07:16:27;96224.09;;;7.48;100.00
11936;BME280;6027;48.576;9.180;2023-04-25T07:18:53;96226.84;;;7.32;100.00
11936;BME280;6027;48.576;9.180;2023-04-25T07:21:18;96217.28;;;7.16;100.00
11936;BME280;6027;48.576;9.180;2023-04-25T07:23:44;96220.81;;;7.09;100.00
11936;BME280;6027;48.576;9.180;2023-04-25T07:26:09;96226.47;;;6.98;100.00
11936;BME280;6027;48.576;9.180;2023-04-25T07:28:35;96230.09;;;6.97;100.00
11936;BME280;6027;48.576;9.180;2023-04-25T07:31:00;96232.09;;;6.94;100.00
11936;BME280;6027;48.576;9.180;2023-04-25T07:33:25;96233.69;;;7.04;100.00
11936;BME280;6027;48.576;9.180;2023-04-25T07:35:52;96231.56;;;6.99;100.00
11936;BME280;6027;48.576;9.180;2023-04-25T07:38:17;96229.53;;;7.09;100.00
11936;BME280;6027;48.576;9.180;2023-04-25T07:40:42;96234.69;;;7.03;100.00
11936;BME280;6027;48.576;9.180;2023-04-25T07:43:08;96230.56;;;7.00;100.00
11936;BME280;6027;48.576;9.180;2023-04-25T07:45:34;96236.34;;;7.18;100.00
11936;BME280;6027;48.576;9.180;2023-04-25T07:47:59;96243.72;;;7.23;100.00
11936;BME280;6027;48.576;9.180;2023-04-25T07:50:25;96250.22;;;7.35;100.00
11936;BME280;6027;48.576;9.180;2023-04-25T07:52:50;96246.31;;;7.31;100.00
11936;BME280;6027;48.576;9.180;2023-04-25T07:55:16;96262.69;;;7.41;100.00
11936;BME280;6027;48.576;9.180;2023-04-25T07:57:41;96256.88;;;7.46;100.00
11936;BME280;6027;48.576;9.180;2023-04-25T08:00:07;96256.06;;;7.45;100.00
11936;BME280;6027;48.576;9.180;2023-04-25T08:02:35;96259.91;;;7.57;100.00
11936;BME280;6027;48.576;9.180;2023-04-25T08:05:00;96266.91;;;7.65;100.00
11936;BME280;6027;48.576;9.180;2023-04-25T08:07:25;96269.56;;;7.65;100.00
11936;BME280;6027;48.576;9.180;2023-04-25T08:09:51;96264.28;;;7.65;100.00
11936;BME280;6027;48.576;9.180;2023-04-25T08:12:17;96272.00;;;7.67;100.00
11936;BME280;6027;48.576;9.180;2023-04-25T08:14:43;96281.09;;;7.64;100.00
11936;BME280;6027;48.576;9.180;2023-04-25T08:17:09;96281.44;;;7.61;100.00
11936;BME280;6027;48.576;9.180;2023-04-25T08:19:34;96285.38;;;7.65;100.00
11936;BME280;6027;48.576;9.180;2023-04-25T08:22:00;96292.31;;;7.58;100.00
11936;BME280;6027;48.576;9.180;2023-04-25T08:24:25;96299.28;;;7.51;100.00
11936;BME280;6027;48.576;9.180;2023-04-25T08:26:51;96293.41;;;7.49;100.00
11936;BME280;6027;48.576;9.180;2023-04-25T08:29:17;96287.19;;;7.42;100.00
11936;BME280;6027;48.576;9.180;2023-04-25T08:31:42;96307.75;;;7.46;100.00
11936;BME280;6027;48.576;9.180;2023-04-25T08:34:08;96306.56;;;7.49;100.00
11936;BME280;6027;48.576;9.180;2023-04-25T08:36:34;96318.03;;;7.56;100.00
11936;BME280;6027;48.576;9.180;2023-04-25T08:38:59;96317.94;;;7.49;100.00
11936;BME280;6027;48.576;9.180;2023-04-25T08:41:26;96319.56;;;7.50;100.00
11936;BME280;6027;48.576;9.180;2023-04-25T08:43:53;96326.22;;;7.38;100.00
11936;BME280;6027;48.576;9.180;2023-04-25T08:46:18;96327.03;;;7.39;100.00
11936;BME280;6027;48.576;9.180;2023-04-25T08:48:45;96326.47;;;7.28;100.00
11936;BME280;6027;48.576;9.180;2023-04-25T08:51:31;96333.81;;;7.33;100.00
11936;BME280;6027;48.576;9.180;2023-04-25T08:54:06;96343.38;;;7.34;100.00
11936;BME280;6027;48.576;9.180;2023-04-25T08:56:34;96343.38;;;7.34;100.00
11936;BME280;6027;48.576;9.180;2023-04-25T08:59:01;96336.34;;;7.26;100.00
11936;BME280;6027;48.576;9.180;2023-04-25T09:01:27;96352.59;;;7.07;100.00
11936;BME280;6027;48.576;9.180;2023-04-25T09:03:53;96354.44;;;6.99;100.00
11936;BME280;6027;48.576;9.180;2023-04-25T09:06:19;96355.38;;;6.75;100.00
11936;BME280;6027;48.576;9.180;2023-04-25T09:08:45;96365.88;;;6.83;100.00
11936;BME280;6027;48.576;9.180;2023-04-25T09:11:12;96362.56;;;6.89;100.00
11936;BME280;6027;48.576;9.180;2023-04-25T09:13:38;96366.75;;;6.67;100.00
11936;BME280;6027;48.576;9.180;2023-04-25T09:16:03;96378.59;;;6.71;100.00
11936;BME280;6027;48.576;9.180;2023-04-25T09:18:31;96374.09;;;6.80;100.00
11936;BME280;6027;48.576;9.180;2023-04-25T09:21:09;96386.97;;;6.67;100.00
11936;BME280;6027;48.576;9.180;2023-04-25T09:23:44;96389.50;;;6.52;100.00
11936;BME280;6027;48.576;9.180;2023-04-25T09:26:10;96386.22;;;6.50;100.00
11936;BME280;6027;48.576;9.180;2023-04-25T09:28:38;96394.59;;;6.53;100.00
11936;BME280;6027;48.576;9.180;2023-04-25T09:31:04;96394.38;;;6.63;100.00
11936;BME280;6027;48.576;9.180;2023-04-25T09:33:31;96399.97;;;6.68;100.00
11936;BME280;6027;48.576;9.180;2023-04-25T09:36:05;96405.63;;;6.49;100.00
11936;BME280;6027;48.576;9.180;2023-04-25T09:38:36;96409.06;;;6.41;100.00
11936;BME280;6027;48.576;9.180;2023-04-25T09:41:05;96409.56;;;6.45;100.00
11936;BME280;6027;48.576;9.180;2023-04-25T09:43:31;96413.00;;;6.37;100.00
11936;BME280;6027;48.576;9.180;2023-04-25T09:45:56;96425.16;;;6.38;100.00
11936;BME280;6027;48.576;9.180;2023-04-25T09:48:25;96426.19;;;6.21;100.00
11936;BME280;6027;48.576;9.180;2023-04-25T09:51:05;96424.41;;;6.13;100.00
11936;BME280;6027;48.576;9.180;2023-04-25T09:53:35;96429.50;;;6.15;100.00
11936;BME280;6027;48.576;9.180;2023-04-25T09:56:04;96435.72;;;6.06;100.00
11936;BME280;6027;48.576;9.180;2023-04-25T09:58:31;96436.56;;;6.14;100.00
11936;BME280;6027;48.576;9.180;2023-04-25T10:01:00;96438.69;;;6.11;100.00
11936;BME280;6027;48.576;9.180;2023-04-25T10:03:29;96440.97;;;6.06;100.00
11936;BME280;6027;48.576;9.180;2023-04-25T10:05:56;96441.78;;;6.22;100.00
11936;BME280;6027;48.576;9.180;2023-04-25T10:08:24;96450.34;;;6.08;100.00
11936;BME280;6027;48.576;9.180;2023-04-25T10:10:51;96436.81;;;5.79;100.00
11936;BME280;6027;48.576;9.180;2023-04-25T10:13:18;96446.69;;;5.69;100.00
11936;BME280;6027;48.576;9.180;2023-04-25T10:15:43;96452.56;;;5.63;100.00
11936;BME280;6027;48.576;9.180;2023-04-25T10:18:10;96449.13;;;5.62;100.00
11936;BME280;6027;48.576;9.180;2023-04-25T10:20:36;96452.22;;;5.49;100.00
11936;BME280;6027;48.576;9.180;2023-04-25T10:23:13;96456.16;;;5.45;100.00
11936;BME280;6027;48.576;9.180;2023-04-25T10:25:39;96452.53;;;5.46;100.00
11936;BME280;6027;48.576;9.180;2023-04-25T10:28:05;96454.22;;;5.55;100.00
11936;BME280;6027;48.576;9.180;2023-04-25T10:30:31;96462.41;;;5.61;100.00
11936;BME280;6027;48.576;9.180;2023-04-25T10:32:59;96461.47;;;5.70;100.00
11936;BME280;6027;48.576;9.180;2023-04-25T10:35:29;96467.81;;;5.59;100.00
11936;BME280;6027;48.576;9.180;2023-04-25T10:38:11;96459.47;;;5.55;100.00
11936;BME280;6027;48.576;9.180;2023-04-25T10:40:38;96471.75;;;5.47;100.00
11936;BME280;6027;48.576;9.180;2023-04-25T10:43:39;96469.56;;;5.26;100.00
11936;BME280;6027;48.576;9.180;2023-04-25T10:46:24;96477.75;;;5.23;100.00
11936;BME280;6027;48.576;9.180;2023-04-25T10:48:53;96480.66;;;5.12;100.00
11936;BME280;6027;48.576;9.180;2023-04-25T10:51:27;96475.72;;;5.09;100.00
11936;BME280;6027;48.576;9.180;2023-04-25T10:53:56;96481.50;;;5.20;100.00
11936;BME280;6027;48.576;9.180;2023-04-25T10:56:33;96485.28;;;5.26;100.00
11936;BME280;6027;48.576;9.180;2023-04-25T10:59:14;96492.44;;;5.08;100.00
11936;BME280;6027;48.576;9.180;2023-04-25T11:01:49;96498.16;;;5.03;100.00
11936;BME280;6027;48.576;9.180;2023-04-25T11:04:30;96505.19;;;4.95;100.00
11936;BME280;6027;48.576;9.180;2023-04-25T11:09:28;96503.13;;;5.14;100.00
11936;BME280;6027;48.576;9.180;2023-04-25T11:11:58;96511.53;;;5.18;100.00
11936;BME280;6027;48.576;9.180;2023-04-25T11:14:25;96506.28;;;5.18;100.00
11936;BME280;6027;48.576;9.180;2023-04-25T11:16:55;96512.16;;;5.20;100.00
11936;BME280;6027;48.576;9.180;2023-04-25T11:19:22;96512.25;;;5.36;100.00
11936;BME280;6027;48.576;9.180;2023-04-25T11:21:47;96518.97;;;5.39;100.00
11936;BME280;6027;48.576;9.180;2023-04-25T11:24:13;96523.06;;;5.33;100.00
11936;BME280;6027;48.576;9.180;2023-04-25T11:26:41;96526.16;;;5.29;100.00
11936;BME280;6027;48.576;9.180;2023-04-25T11:29:07;96525.47;;;5.18;100.00
11936;BME280;6027;48.576;9.180;2023-04-25T11:31:32;96521.72;;;5.29;100.00
11936;BME280;6027;48.576;9.180;2023-04-25T11:33:58;96513.72;;;5.39;100.00
11936;BME280;6027;48.576;9.180;2023-04-25T11:36:24;96513.53;;;5.32;100.00
11936;BME280;6027;48.576;9.180;2023-04-25T11:38:51;96520.13;;;5.36;100.00
11936;BME280;6027;48.576;9.180;2023-04-25T11:41:18;96520.97;;;5.45;100.00
11936;BME280;6027;48.576;9.180;2023-04-25T11:43:43;96522.44;;;5.47;100.00
11936;BME280;6027;48.576;9.180;2023-04-25T11:46:09;96522.81;;;5.52;100.00
11936;BME280;6027;48.576;9.180;2023-04-25T11:48:39;96518.06;;;5.56;100.00
11936;BME280;6027;48.576;9.180;2023-04-25T11:51:05;96523.47;;;5.63;100.00
11936;BME280;6027;48.576;9.180;2023-04-25T11:53:30;96517.41;;;5.62;100.00
11936;BME280;6027;48.576;9.180;2023-04-25T11:55:56;96527.91;;;5.54;100.00
11936;BME280;6027;48.576;9.180;2023-04-25T11:58:21;96527.44;;;5.67;100.00
11936;BME280;6027;48.576;9.180;2023-04-25T12:00:47;96535.31;;;5.67;100.00
11936;BME280;6027;48.576;9.180;2023-04-25T12:03:12;96536.47;;;5.72;100.00
11936;BME280;6027;48.576;9.180;2023-04-25T12:05:38;96546.78;;;5.66;100.00
11936;BME280;6027;48.576;9.180;2023-04-25T12:08:11;96549.13;;;5.69;100.00
11936;BME280;6027;48.576;9.180;2023-04-25T12:10:38;96543.13;;;5.93;100.00
11936;BME280;6027;48.576;9.180;2023-04-25T12:13:19;96551.44;;;5.80;100.00
11936;BME280;6027;48.576;9.180;2023-04-25T12:15:45;96549.75;;;5.63;100.00
11936;BME280;6027;48.576;9.180;2023-04-25T12:18:10;96543.69;;;5.70;100.00
11936;BME280;6027;48.576;9.180;2023-04-25T12:20:36;96541.59;;;5.74;100.00
11936;BME280;6027;48.576;9.180;2023-04-25T12:23:05;96548.47;;;5.83;100.00
11936;BME280;6027;48.576;9.180;2023-04-25T12:25:39;96545.25;;;5.89;100.00
11936;BME280;6027;48.576;9.180;2023-04-25T12:33:21;96563.94;;;5.86;100.00
11936;BME280;6027;48.576;9.180;2023-04-25T12:35:47;96559.22;;;5.89;100.00
11936;BME280;6027;48.576;9.180;2023-04-25T12:38:21;96568.25;;;6.03;100.00
11936;BME280;6027;48.576;9.180;2023-04-25T12:40:46;96568.78;;;6.07;100.00
11936;BME280;6027;48.576;9.180;2023-04-25T12:43:11;96577.16;;;6.10;100.00
11936;BME280;6027;48.576;9.180;2023-04-25T12:45:37;96574.38;;;6.20;100.00
11936;BME280;6027;48.576;9.180;2023-04-25T12:48:03;96572.09;;;6.41;100.00
11936;BME280;6027;48.576;9.180;2023-04-25T12:50:28;96571.28;;;6.33;100.00
11936;BME280;6027;48.576;9.180;2023-04-25T12:52:53;96576.53;;;6.24;100.00
11936;BME280;6027;48.576;9.180;2023-04-25T12:55:19;96567.66;;;6.42;100.00
11936;BME280;6027;48.576;9.180;2023-04-25T12:57:44;96584.94;;;6.52;100.00
11936;BME280;6027;48.576;9.180;2023-04-25T13:00:10;96576.88;;;6.54;100.00
11936;BME280;6027;48.576;9.180;2023-04-25T13:02:39;96578.50;;;6.47;100.00
11936;BME280;6027;48.576;9.180;2023-04-25T13:05:05;96572.41;;;6.54;100.00
11936;BME280;6027;48.576;9.180;2023-04-25T13:07:30;96575.22;;;6.69;100.00
11936;BME280;6027;48.576;9.180;2023-04-25T13:09:56;96580.16;;;6.56;100.00
11936;BME280;6027;48.576;9.180;2023-04-25T13:12:21;96568.28;;;6.76;100.00
11936;BME280;6027;48.576;9.180;2023-04-25T13:14:47;96572.09;;;6.90;100.00
11936;BME280;6027;48.576;9.180;2023-04-25T13:17:12;96581.44;;;7.01;100.00
11936;BME280;6027;48.576;9.180;2023-04-25T13:19:38;96580.59;;;7.08;100.00
11936;BME280;6027;48.576;9.180;2023-04-25T13:22:04;96575.00;;;7.11;100.00
11936;BME280;6027;48.576;9.180;2023-04-25T13:24:29;96578.09;;;7.15;100.00
11936;BME280;6027;48.576;9.180;2023-04-25T13:26:58;96573.81;;;7.22;100.00